Terminal Aerodrome Forecast
Issued by NWS

Home | Current Version | Previous Version | Text Only | Print | Product List | Glossary On
Versions: 1 2 3 4 5 6 7 8 9 10 11 12 13 14 15 16 17
000
FTUS44 KEPZ 210800 AAA
TAFTCS
TAF AMD
KTCS 210820Z 2108/2206 07009KT P6SM VCTS SCT060CB BKN100 BKN200
      TEMPO 2108/2112 3SM +TSRA BKN050CB OVC070
     FM211200 07008KT P6SM SCT100 SCT250
     FM211900 12009KT P6SM VCTS SCT050CB SCT100 BKN200
      TEMPO 2200/2204 VRB25G35KT 3SM TSRA BKN040CB OVC080=

USA.gov is the U.S. government's official web portal to all federal, state and local government web resources and services.